Time,TemperatureF,DewpointF,PressureIn,WindDirection,WindDirectionDegrees,WindSpeedMPH,WindSpeedGustMPH,Humidity,HourlyPrecipIn,Conditions,Clouds,dailyrainin,SolarRadiationWatts/m^2,SoftwareType,DateUTC
2013-10-25 00:01:00,60.7,27.4,29.92,ENE,77,1.0,1.0,28,0.00,,,0.00,0,WeatherCatV1.11B39,2013-10-25 07:01:00,
2013-10-25 00:06:00,60.4,27.1,29.92,ENE,77,1.0,2.0,28,0.00,,,0.00,0,WeatherCatV1.11B39,2013-10-25 07:06:00,
2013-10-25 00:11:00,60.0,27.7,29.92,ENE,77,1.0,1.0,29,0.00,,,0.00,0,WeatherCatV1.11B39,2013-10-25 07:11:00,
2013-10-25 00:16:00,59.2,27.0,29.92,ENE,77,1.0,2.0,29,0.00,,,0.00,0,WeatherCatV1.11B39,2013-10-25 07:16:00,
2013-10-25 00:21:00,58.8,27.4,29.92,ENE,77,1.0,1.0,30,0.00,,,0.00,0,WeatherCatV1.11B39,2013-10-25 07:21:00,
2013-10-25 00:26:00,58.4,27.1,29.92,ENE,77,2.0,2.0,30,0.00,,,0.00,0,WeatherCatV1.11B39,2013-10-25 07:26:00,
2013-10-25 00:31:00,58.1,27.6,29.92,ENE,77,2.0,2.0,31,0.00,,,0.00,0,WeatherCatV1.11B39,2013-10-25 07:31:00,
2013-10-25 00:36:00,57.7,26.5,29.92,ENE,77,2.0,2.0,30,0.00,,,0.00,0,WeatherCatV1.11B39,2013-10-25 07:36:00,
2013-10-25 00:41:00,57.7,27.3,29.92,ENE,77,2.0,2.0,31,0.00,,,0.00,0,WeatherCatV1.11B39,2013-10-25 07:41:00,
2013-10-25 00:46:00,57.6,27.2,29.92,ENE,77,1.0,2.0,31,0.00,,,0.00,0,WeatherCatV1.11B39,2013-10-25 07:46:00,
2013-10-25 00:51:00,57.3,26.9,29.92,ENE,77,1.0,2.0,31,0.00,,,0.00,0,WeatherCatV1.11B39,2013-10-25 07:51:00,
2013-10-25 00:56:00,57.0,26.7,29.92,ENE,77,2.0,3.0,31,0.00,,,0.00,0,WeatherCatV1.11B39,2013-10-25 07:56:00,
2013-10-25 01:01:00,56.8,27.3,29.93,ENE,77,1.0,3.0,32,0.00,,,0.00,0,WeatherCatV1.11B39,2013-10-25 08:01:00,
2013-10-25 01:06:00,56.9,26.6,29.93,ENE,77,0.0,1.0,31,0.00,,,0.00,0,WeatherCatV1.11B39,2013-10-25 08:06:00,
2013-10-25 01:11:00,56.9,26.6,29.93,ENE,77,0.0,1.0,31,0.00,,,0.00,0,WeatherCatV1.11B39,2013-10-25 08:11:00,
2013-10-25 01:16:00,56.6,27.1,29.93,ENE,77,0.0,0.0,32,0.00,,,0.00,0,WeatherCatV1.11B39,2013-10-25 08:16:00,
2013-10-25 01:21:00,56.0,27.3,29.93,ENE,77,0.0,1.0,33,0.00,,,0.00,0,WeatherCatV1.11B39,2013-10-25 08:21:00,
2013-10-25 01:26:00,55.5,26.9,29.93,ENE,77,0.0,0.0,33,0.00,,,0.00,0,WeatherCatV1.11B39,2013-10-25 08:26:00,
2013-10-25 01:31:00,55.2,27.3,29.93,ENE,77,0.0,1.0,34,0.00,,,0.00,0,WeatherCatV1.11B39,2013-10-25 08:31:00,
2013-10-25 01:36:00,54.8,27.0,29.93,ENE,77,0.0,0.0,34,0.00,,,0.00,0,WeatherCatV1.11B39,2013-10-25 08:36:00,
2013-10-25 01:41:00,54.9,27.1,29.93,ENE,77,0.0,0.0,34,0.00,,,0.00,0,WeatherCatV1.11B39,2013-10-25 08:41:00,
2013-10-25 01:46:00,54.8,27.7,29.93,ENE,77,0.0,1.0,35,0.00,,,0.00,0,WeatherCatV1.11B39,2013-10-25 08:46:00,
2013-10-25 01:51:00,54.6,27.5,29.93,ENE,77,1.0,1.0,35,0.00,,,0.00,0,WeatherCatV1.11B39,2013-10-25 08:51:00,
2013-10-25 01:56:00,54.5,27.4,29.93,ENE,77,1.0,1.0,35,0.00,,,0.00,0,WeatherCatV1.11B39,2013-10-25 08:56:00,
2013-10-25 02:01:00,54.6,27.5,29.93,ENE,77,1.0,1.0,35,0.00,,,0.00,0,WeatherCatV1.11B39,2013-10-25 09:01:00,
2013-10-25 02:06:00,54.4,27.3,29.93,ENE,77,0.0,0.0,35,0.00,,,0.00,0,WeatherCatV1.11B39,2013-10-25 09:06:00,
2013-10-25 02:11:00,54.2,27.8,29.93,ENE,77,0.0,0.0,36,0.00,,,0.00,0,WeatherCatV1.11B39,2013-10-25 09:11:00,
2013-10-25 02:16:00,53.8,27.5,29.93,ENE,77,0.0,0.0,36,0.00,,,0.00,0,WeatherCatV1.11B39,2013-10-25 09:16:00,
2013-10-25 02:21:00,53.5,27.2,29.93,ENE,77,0.0,0.0,36,0.00,,,0.00,0,WeatherCatV1.11B39,2013-10-25 09:21:00,
2013-10-25 02:26:00,53.5,27.2,29.93,ENE,77,0.0,0.0,36,0.00,,,0.00,0,WeatherCatV1.11B39,2013-10-25 09:26:00,
2013-10-25 02:31:00,53.8,27.5,29.93,ENE,77,1.0,1.0,36,0.00,,,0.00,0,WeatherCatV1.11B39,2013-10-25 09:31:00,
2013-10-25 02:36:00,53.9,27.6,29.93,ENE,77,1.0,1.0,36,0.00,,,0.00,0,WeatherCatV1.11B39,2013-10-25 09:36:00,
2013-10-25 02:41:00,53.9,27.6,29.92,ENE,77,0.0,1.0,36,0.00,,,0.00,0,WeatherCatV1.11B39,2013-10-25 09:41:00,
2013-10-25 02:46:00,53.6,27.3,29.93,ENE,77,0.0,0.0,36,0.00,,,0.00,0,WeatherCatV1.11B39,2013-10-25 09:46:00,
2013-10-25 02:51:00,53.4,27.8,29.93,ENE,77,1.0,2.0,37,0.00,,,0.00,0,WeatherCatV1.11B39,2013-10-25 09:51:00,
2013-10-25 02:56:00,53.5,27.9,29.93,ENE,77,3.0,3.0,37,0.00,,,0.00,0,WeatherCatV1.11B39,2013-10-25 09:56:00,
2013-10-25 03:01:00,53.6,28.0,29.93,ENE,77,2.0,2.0,37,0.00,,,0.00,0,WeatherCatV1.11B39,2013-10-25 10:01:00,
2013-10-25 03:06:00,53.8,27.5,29.93,ENE,77,0.0,2.0,36,0.00,,,0.00,0,WeatherCatV1.11B39,2013-10-25 10:06:00,
2013-10-25 03:11:00,53.1,27.5,29.93,ENE,77,0.0,0.0,37,0.00,,,0.00,0,WeatherCatV1.11B39,2013-10-25 10:11:00,
2013-10-25 03:16:00,52.6,27.7,29.93,ENE,77,0.0,0.0,38,0.00,,,0.00,0,WeatherCatV1.11B39,2013-10-25 10:16:00,
2013-10-25 03:21:00,52.4,27.5,29.93,ENE,77,0.0,0.0,38,0.00,,,0.00,0,WeatherCatV1.11B39,2013-10-25 10:21:00,
2013-10-25 03:26:00,52.0,28.4,29.93,ENE,77,0.0,0.0,40,0.00,,,0.00,0,WeatherCatV1.11B39,2013-10-25 10:26:00,
2013-10-25 03:31:00,51.8,28.3,29.93,ENE,77,0.0,0.0,40,0.00,,,0.00,0,WeatherCatV1.11B39,2013-10-25 10:31:00,
2013-10-25 03:36:00,51.2,28.3,29.93,ENE,77,0.0,1.0,41,0.00,,,0.00,0,WeatherCatV1.11B39,2013-10-25 10:36:00,
2013-10-25 03:41:00,50.9,28.0,29.93,ENE,77,0.0,0.0,41,0.00,,,0.00,0,WeatherCatV1.11B39,2013-10-25 10:41:00,
2013-10-25 03:46:00,51.0,28.1,29.93,ENE,77,0.0,0.0,41,0.00,,,0.00,0,WeatherCatV1.11B39,2013-10-25 10:46:00,
2013-10-25 03:51:00,51.1,28.8,29.93,ENE,77,0.0,0.0,42,0.00,,,0.00,0,WeatherCatV1.11B39,2013-10-25 10:51:00,
2013-10-25 03:56:00,51.0,28.7,29.93,ENE,77,1.0,2.0,42,0.00,,,0.00,0,WeatherCatV1.11B39,2013-10-25 10:56:00,
2013-10-25 04:01:00,50.6,28.4,29.93,ENE,76,0.0,1.0,42,0.00,,,0.00,0,WeatherCatV1.11B39,2013-10-25 11:01:00,
2013-10-25 04:06:00,51.1,28.8,29.93,ENE,76,0.0,0.0,42,0.00,,,0.00,0,WeatherCatV1.11B39,2013-10-25 11:06:00,
2013-10-25 04:11:00,51.2,28.3,29.93,ENE,76,0.0,0.0,41,0.00,,,0.00,0,WeatherCatV1.11B39,2013-10-25 11:11:00,
2013-10-25 04:16:00,51.2,28.9,29.93,ENE,76,0.0,0.0,42,0.00,,,0.00,0,WeatherCatV1.11B39,2013-10-25 11:16:00,
2013-10-25 04:21:00,50.5,29.4,29.93,ENE,76,2.0,2.0,44,0.00,,,0.00,0,WeatherCatV1.11B39,2013-10-25 11:21:00,
2013-10-25 04:26:00,50.7,29.0,29.93,ENE,76,0.0,0.0,43,0.00,,,0.00,0,WeatherCatV1.11B39,2013-10-25 11:26:00,
2013-10-25 04:31:00,50.8,29.1,29.93,ENE,76,2.0,2.0,43,0.00,,,0.00,0,WeatherCatV1.11B39,2013-10-25 11:31:00,
2013-10-25 04:36:00,50.8,29.1,29.93,ENE,76,1.0,2.0,43,0.00,,,0.00,0,WeatherCatV1.11B39,2013-10-25 11:36:00,
2013-10-25 04:41:00,51.0,28.7,29.93,ENE,76,1.0,3.0,42,0.00,,,0.00,0,WeatherCatV1.11B39,2013-10-25 11:41:00,
2013-10-25 04:46:00,50.8,28.5,29.93,ENE,76,0.0,0.0,42,0.00,,,0.00,0,WeatherCatV1.11B39,2013-10-25 11:46:00,
2013-10-25 04:51:00,50.6,28.9,29.93,ENE,76,2.0,2.0,43,0.00,,,0.00,0,WeatherCatV1.11B39,2013-10-25 11:51:00,
2013-10-25 04:56:00,50.8,28.5,29.93,ENE,76,3.0,3.0,42,0.00,,,0.00,0,WeatherCatV1.11B39,2013-10-25 11:56:00,
2013-10-25 05:01:00,50.4,28.8,29.93,ENE,76,0.0,0.0,43,0.00,,,0.00,0,WeatherCatV1.11B39,2013-10-25 12:01:00,
2013-10-25 05:06:00,50.4,28.8,29.94,ENE,76,0.0,0.0,43,0.00,,,0.00,0,WeatherCatV1.11B39,2013-10-25 12:06:00,
2013-10-25 05:11:00,49.6,28.6,29.94,ENE,76,0.0,0.0,44,0.00,,,0.00,0,WeatherCatV1.11B39,2013-10-25 12:11:00,
2013-10-25 05:16:00,49.8,28.8,29.94,ENE,76,0.0,0.0,44,0.00,,,0.00,0,WeatherCatV1.11B39,2013-10-25 12:16:00,
2013-10-25 05:21:00,49.6,29.1,29.94,ENE,76,0.0,0.0,45,0.00,,,0.00,0,WeatherCatV1.11B39,2013-10-25 12:21:00,
2013-10-25 05:26:00,49.8,28.8,29.94,ENE,76,1.0,3.0,44,0.00,,,0.00,0,WeatherCatV1.11B39,2013-10-25 12:26:00,
2013-10-25 05:31:00,50.0,29.0,29.94,ENE,76,1.0,2.0,44,0.00,,,0.00,0,WeatherCatV1.11B39,2013-10-25 12:31:00,
2013-10-25 05:36:00,49.5,29.0,29.94,ENE,76,1.0,2.0,45,0.00,,,0.00,0,WeatherCatV1.11B39,2013-10-25 12:36:00,
2013-10-25 05:41:00,49.8,29.3,29.95,ENE,76,0.0,1.0,45,0.00,,,0.00,0,WeatherCatV1.11B39,2013-10-25 12:41:00,
2013-10-25 05:46:00,49.9,28.9,29.95,ENE,76,1.0,3.0,44,0.00,,,0.00,0,WeatherCatV1.11B39,2013-10-25 12:46:00,
2013-10-25 05:51:00,50.0,29.0,29.95,ENE,76,1.0,2.0,44,0.00,,,0.00,0,WeatherCatV1.11B39,2013-10-25 12:51:00,
2013-10-25 05:56:00,49.8,29.3,29.95,ENE,76,1.0,2.0,45,0.00,,,0.00,0,WeatherCatV1.11B39,2013-10-25 12:56:00,
2013-10-25 06:01:00,49.8,29.3,29.95,ENE,76,0.0,2.0,45,0.00,,,0.00,0,WeatherCatV1.11B39,2013-10-25 13:01:00,
2013-10-25 06:06:00,50.0,29.0,29.95,ENE,76,0.0,0.0,44,0.00,,,0.00,0,WeatherCatV1.11B39,2013-10-25 13:06:00,
2013-10-25 06:11:00,49.7,28.7,29.95,ENE,76,0.0,1.0,44,0.00,,,0.00,0,WeatherCatV1.11B39,2013-10-25 13:11:00,
2013-10-25 06:16:00,49.3,28.9,29.96,ENE,76,0.0,0.0,45,0.00,,,0.00,0,WeatherCatV1.11B39,2013-10-25 13:16:00,
2013-10-25 06:21:00,48.9,29.0,29.96,ENE,76,1.0,2.0,46,0.00,,,0.00,0,WeatherCatV1.11B39,2013-10-25 13:21:00,
2013-10-25 06:26:00,49.0,29.1,29.96,ENE,76,1.0,1.0,46,0.00,,,0.00,0,WeatherCatV1.11B39,2013-10-25 13:26:00,
2013-10-25 06:31:00,48.7,29.4,29.96,ENE,76,2.0,2.0,47,0.00,,,0.00,0,WeatherCatV1.11B39,2013-10-25 13:31:00,
2013-10-25 06:36:00,49.1,29.2,29.96,ENE,76,2.0,2.0,46,0.00,,,0.00,5,WeatherCatV1.11B39,2013-10-25 13:36:00,
2013-10-25 06:41:00,50.1,29.0,29.96,ENE,76,2.0,2.0,44,0.00,,,0.00,9,WeatherCatV1.11B39,2013-10-25 13:41:00,
2013-10-25 06:46:00,50.3,29.2,29.96,ENE,76,2.0,3.0,44,0.00,,,0.00,11,WeatherCatV1.11B39,2013-10-25 13:46:00,
2013-10-25 06:52:00,50.8,29.1,29.96,ENE,76,1.0,1.0,43,0.00,,,0.00,14,WeatherCatV1.11B39,2013-10-25 13:52:00,
2013-10-25 06:57:00,51.3,29.6,29.96,ENE,76,2.0,2.0,43,0.00,,,0.00,18,WeatherCatV1.11B39,2013-10-25 13:57:00,
2013-10-25 07:02:00,51.5,29.8,29.96,ENE,76,0.0,1.0,43,0.00,,,0.00,21,WeatherCatV1.11B39,2013-10-25 14:02:00,
2013-10-25 07:07:00,50.7,30.1,29.97,ENE,76,0.0,0.0,45,0.00,,,0.00,26,WeatherCatV1.11B39,2013-10-25 14:07:00,
2013-10-25 07:12:00,50.5,30.5,29.97,ENE,76,0.0,0.0,46,0.00,,,0.00,44,WeatherCatV1.11B39,2013-10-25 14:12:00,
2013-10-25 07:17:00,50.9,31.9,29.97,ENE,76,0.0,0.0,48,0.00,,,0.00,67,WeatherCatV1.11B39,2013-10-25 14:17:00,
2013-10-25 07:22:00,52.0,32.4,29.97,ENE,76,0.0,0.0,47,0.00,,,0.00,91,WeatherCatV1.11B39,2013-10-25 14:22:00,
2013-10-25 07:27:00,53.3,32.0,29.97,ENE,76,0.0,0.0,44,0.00,,,0.00,111,WeatherCatV1.11B39,2013-10-25 14:27:00,
2013-10-25 07:32:00,54.8,33.3,29.97,ENE,76,0.0,0.0,44,0.00,,,0.00,130,WeatherCatV1.11B39,2013-10-25 14:32:00,
2013-10-25 07:37:00,56.1,33.3,29.97,ENE,76,0.0,0.0,42,0.00,,,0.00,148,WeatherCatV1.11B39,2013-10-25 14:37:00,
2013-10-25 07:42:00,57.5,34.0,29.98,ENE,76,0.0,0.0,41,0.00,,,0.00,169,WeatherCatV1.11B39,2013-10-25 14:42:00,
2013-10-25 07:47:00,59.1,33.5,29.97,ENE,76,0.0,0.0,38,0.00,,,0.00,183,WeatherCatV1.11B39,2013-10-25 14:47:00,
2013-10-25 07:52:00,61.1,33.2,29.98,ENE,76,0.0,0.0,35,0.00,,,0.00,199,WeatherCatV1.11B39,2013-10-25 14:52:00,
2013-10-25 07:57:00,62.3,33.6,29.98,ENE,76,1.0,1.0,34,0.00,,,0.00,216,WeatherCatV1.11B39,2013-10-25 14:57:00,
2013-10-25 08:02:00,62.9,34.1,29.98,ENE,76,0.0,1.0,34,0.00,,,0.00,232,WeatherCatV1.11B39,2013-10-25 15:02:00,
2013-10-25 08:07:00,63.5,34.6,29.98,ENE,76,0.0,1.0,34,0.00,,,0.00,248,WeatherCatV1.11B39,2013-10-25 15:07:00,
2013-10-25 08:12:00,63.9,35.7,29.98,ENE,77,2.0,3.0,35,0.00,,,0.00,265,WeatherCatV1.11B39,2013-10-25 15:12:00,
2013-10-25 08:17:00,63.6,34.7,29.98,ENE,77,1.0,1.0,34,0.00,,,0.00,279,WeatherCatV1.11B39,2013-10-25 15:17:00,
2013-10-25 08:22:00,63.9,33.5,29.99,ENE,77,0.0,2.0,32,0.00,,,0.00,295,WeatherCatV1.11B39,2013-10-25 15:22:00,
2013-10-25 08:27:00,64.5,32.4,29.99,ENE,77,1.0,1.0,30,0.00,,,0.00,315,WeatherCatV1.11B39,2013-10-25 15:27:00,
2013-10-25 08:32:00,65.2,33.0,29.99,ENE,77,2.0,3.0,30,0.00,,,0.00,329,WeatherCatV1.11B39,2013-10-25 15:32:00,
2013-10-25 08:37:00,66.1,32.9,29.99,ENE,77,2.0,3.0,29,0.00,,,0.00,343,WeatherCatV1.11B39,2013-10-25 15:37:00,
2013-10-25 08:42:00,66.3,32.2,29.99,ENE,77,0.0,1.0,28,0.00,,,0.00,362,WeatherCatV1.11B39,2013-10-25 15:42:00,
2013-10-25 08:47:00,67.0,32.8,29.99,ENE,77,2.0,2.0,28,0.00,,,0.00,376,WeatherCatV1.11B39,2013-10-25 15:47:00,
2013-10-25 08:52:00,67.4,32.3,29.99,ENE,77,0.0,1.0,27,0.00,,,0.00,390,WeatherCatV1.11B39,2013-10-25 15:52:00,
2013-10-25 08:57:00,67.9,32.7,29.99,ENE,77,0.0,1.0,27,0.00,,,0.00,406,WeatherCatV1.11B39,2013-10-25 15:57:00,
2013-10-25 09:02:00,68.4,34.0,29.99,ENE,77,0.0,1.0,28,0.00,,,0.00,422,WeatherCatV1.11B39,2013-10-25 16:02:00,
2013-10-25 09:07:00,69.5,34.0,29.99,ENE,77,1.0,1.0,27,0.00,,,0.00,436,WeatherCatV1.11B39,2013-10-25 16:07:00,
2013-10-25 09:12:00,69.6,33.2,29.99,ENE,77,0.0,3.0,26,0.00,,,0.00,450,WeatherCatV1.11B39,2013-10-25 16:12:00,
2013-10-25 09:17:00,70.0,32.6,29.99,ENE,77,1.0,1.0,25,0.00,,,0.00,466,WeatherCatV1.11B39,2013-10-25 16:17:00,
2013-10-25 09:22:00,70.7,32.1,29.99,ENE,75,3.0,3.0,24,0.00,,,0.00,478,WeatherCatV1.11B39,2013-10-25 16:22:00,
2013-10-25 09:27:00,71.3,32.6,29.99,WNW,296,3.0,4.0,24,0.00,,,0.00,492,WeatherCatV1.11B39,2013-10-25 16:27:00,
2013-10-25 09:32:00,71.5,32.8,29.99,WNW,288,2.0,4.0,24,0.00,,,0.00,504,WeatherCatV1.11B39,2013-10-25 16:32:00,
2013-10-25 09:37:00,71.8,33.1,29.99,West,272,3.0,4.0,24,0.00,,,0.00,517,WeatherCatV1.11B39,2013-10-25 16:37:00,
2013-10-25 09:42:00,72.4,32.5,29.99,WSW,238,3.0,4.0,23,0.00,,,0.00,533,WeatherCatV1.11B39,2013-10-25 16:42:00,
2013-10-25 09:47:00,73.1,34.2,29.99,WSW,238,2.0,4.0,24,0.00,,,0.00,541,WeatherCatV1.11B39,2013-10-25 16:47:00,
2013-10-25 09:52:00,73.2,34.2,29.99,WSW,239,3.0,4.0,24,0.00,,,0.00,554,WeatherCatV1.11B39,2013-10-25 16:52:00,
2013-10-25 09:57:00,73.3,33.3,29.99,WSW,240,2.0,3.0,23,0.00,,,0.00,564,WeatherCatV1.11B39,2013-10-25 16:57:00,
2013-10-25 10:02:00,73.8,34.7,29.99,WSW,245,4.0,7.0,24,0.00,,,0.00,575,WeatherCatV1.11B39,2013-10-25 17:02:00,
2013-10-25 10:07:00,74.6,34.3,29.99,SW,229,2.0,3.0,23,0.00,,,0.00,587,WeatherCatV1.11B39,2013-10-25 17:07:00,
2013-10-25 10:12:00,75.5,34.0,29.99,SSW,195,4.0,5.0,22,0.00,,,0.00,598,WeatherCatV1.11B39,2013-10-25 17:12:00,
2013-10-25 10:17:00,75.0,33.6,29.99,SSW,209,4.0,4.0,22,0.00,,,0.00,608,WeatherCatV1.11B39,2013-10-25 17:17:00,
2013-10-25 10:22:00,75.6,32.9,29.99,SSW,211,3.0,4.0,21,0.00,,,0.00,617,WeatherCatV1.11B39,2013-10-25 17:22:00,
2013-10-25 10:27:00,75.8,34.2,29.99,West,259,2.0,6.0,22,0.00,,,0.00,624,WeatherCatV1.11B39,2013-10-25 17:27:00,
2013-10-25 10:32:00,75.6,32.9,29.99,SW,223,3.0,5.0,21,0.00,,,0.00,635,WeatherCatV1.11B39,2013-10-25 17:32:00,
2013-10-25 10:37:00,76.5,32.4,29.98,West,277,2.0,4.0,20,0.00,,,0.00,642,WeatherCatV1.11B39,2013-10-25 17:37:00,
2013-10-25 10:42:00,76.4,32.4,29.98,WSW,253,0.0,5.0,20,0.00,,,0.00,650,WeatherCatV1.11B39,2013-10-25 17:42:00,
2013-10-25 10:47:00,76.8,31.4,29.98,WSW,250,1.0,4.0,19,0.00,,,0.00,657,WeatherCatV1.11B39,2013-10-25 17:47:00,
2013-10-25 10:52:00,78.0,32.4,29.98,SW,227,4.0,5.0,19,0.00,,,0.00,666,WeatherCatV1.11B39,2013-10-25 17:52:00,
2013-10-25 10:57:00,78.4,31.4,29.98,West,280,4.0,6.0,18,0.00,,,0.00,670,WeatherCatV1.11B39,2013-10-25 17:57:00,
2013-10-25 11:02:00,77.8,30.9,29.98,WNW,301,5.0,5.0,18,0.00,,,0.00,677,WeatherCatV1.11B39,2013-10-25 18:02:00,
2013-10-25 11:07:00,78.5,31.5,29.98,WNW,282,0.0,5.0,18,0.00,,,0.00,682,WeatherCatV1.11B39,2013-10-25 18:07:00,
2013-10-25 11:12:00,79.4,32.2,29.98,SW,227,1.0,4.0,18,0.00,,,0.00,689,WeatherCatV1.11B39,2013-10-25 18:12:00,
2013-10-25 11:17:00,79.6,30.9,29.97,West,267,3.0,6.0,17,0.00,,,0.00,696,WeatherCatV1.11B39,2013-10-25 18:17:00,
2013-10-25 11:22:00,79.4,32.2,29.97,SW,226,4.0,5.0,18,0.00,,,0.00,700,WeatherCatV1.11B39,2013-10-25 18:22:00,
2013-10-25 11:27:00,79.4,30.8,29.97,WSW,249,3.0,4.0,17,0.00,,,0.00,701,WeatherCatV1.11B39,2013-10-25 18:27:00,
2013-10-25 11:32:00,80.2,31.4,29.97,WSW,238,4.0,4.0,17,0.00,,,0.00,707,WeatherCatV1.11B39,2013-10-25 18:32:00,
2013-10-25 11:37:00,80.5,30.2,29.97,West,272,2.0,4.0,16,0.00,,,0.00,712,WeatherCatV1.11B39,2013-10-25 18:37:00,
2013-10-25 11:42:00,80.9,32.0,29.97,SSW,213,5.0,5.0,17,0.00,,,0.00,717,WeatherCatV1.11B39,2013-10-25 18:42:00,
2013-10-25 11:47:00,81.5,31.0,29.97,West,261,3.0,6.0,16,0.00,,,0.00,717,WeatherCatV1.11B39,2013-10-25 18:47:00,
2013-10-25 11:52:00,80.6,30.2,29.97,NW,305,2.0,3.0,16,0.00,,,0.00,719,WeatherCatV1.11B39,2013-10-25 18:52:00,
2013-10-25 11:57:00,81.8,31.2,29.96,WSW,247,0.0,2.0,16,0.00,,,0.00,719,WeatherCatV1.11B39,2013-10-25 18:57:00,
2013-10-25 12:02:00,82.2,29.9,29.96,WNW,292,1.0,5.0,15,0.00,,,0.00,721,WeatherCatV1.11B39,2013-10-25 19:02:00,
2013-10-25 12:07:00,82.1,31.4,29.95,West,267,2.0,6.0,16,0.00,,,0.00,722,WeatherCatV1.11B39,2013-10-25 19:07:00,
2013-10-25 12:12:00,82.9,30.5,29.95,SW,232,0.0,1.0,15,0.00,,,0.00,722,WeatherCatV1.11B39,2013-10-25 19:12:00,
2013-10-25 12:17:00,83.6,31.0,29.95,SSW,209,2.0,5.0,15,0.00,,,0.00,722,WeatherCatV1.11B39,2013-10-25 19:17:00,
2013-10-25 12:22:00,83.4,30.9,29.94,West,278,2.0,5.0,15,0.00,,,0.00,721,WeatherCatV1.11B39,2013-10-25 19:22:00,
2013-10-25 12:27:00,83.4,30.9,29.94,WNW,292,2.0,6.0,15,0.00,,,0.00,721,WeatherCatV1.11B39,2013-10-25 19:27:00,
2013-10-25 12:32:00,83.2,32.3,29.94,WSW,255,3.0,5.0,16,0.00,,,0.00,721,WeatherCatV1.11B39,2013-10-25 19:32:00,
2013-10-25 12:37:00,83.6,31.0,29.93,SSW,192,1.0,6.0,15,0.00,,,0.00,714,WeatherCatV1.11B39,2013-10-25 19:37:00,
2013-10-25 12:42:00,83.8,32.8,29.93,West,269,0.0,2.0,16,0.00,,,0.00,712,WeatherCatV1.11B39,2013-10-25 19:42:00,
2013-10-25 12:47:00,83.5,32.6,29.93,West,266,2.0,5.0,16,0.00,,,0.00,712,WeatherCatV1.11B39,2013-10-25 19:47:00,
2013-10-25 12:52:00,84.0,33.0,29.93,WSW,257,6.0,7.0,16,0.00,,,0.00,707,WeatherCatV1.11B39,2013-10-25 19:52:00,
2013-10-25 12:57:00,84.9,32.1,29.93,WSW,255,7.0,7.0,15,0.00,,,0.00,703,WeatherCatV1.11B39,2013-10-25 19:57:00,
2013-10-25 13:02:00,84.3,29.9,29.92,WSW,240,4.0,9.0,14,0.00,,,0.00,703,WeatherCatV1.11B39,2013-10-25 20:02:00,
2013-10-25 13:07:00,84.5,30.1,29.92,WNW,288,8.0,8.0,14,0.00,,,0.00,696,WeatherCatV1.11B39,2013-10-25 20:07:00,
2013-10-25 13:12:00,84.8,32.0,29.92,West,261,3.0,9.0,15,0.00,,,0.00,694,WeatherCatV1.11B39,2013-10-25 20:12:00,
2013-10-25 13:17:00,83.8,29.5,29.92,SSW,201,2.0,9.0,14,0.00,,,0.00,686,WeatherCatV1.11B39,2013-10-25 20:17:00,
2013-10-25 13:22:00,84.2,29.8,29.92,WNW,292,2.0,8.0,14,0.00,,,0.00,679,WeatherCatV1.11B39,2013-10-25 20:22:00,
2013-10-25 13:27:00,85.1,30.5,29.91,WSW,256,2.0,7.0,14,0.00,,,0.00,668,WeatherCatV1.11B39,2013-10-25 20:27:00,
2013-10-25 13:32:00,84.4,30.0,29.91,SSW,208,0.0,1.0,14,0.00,,,0.00,664,WeatherCatV1.11B39,2013-10-25 20:32:00,
2013-10-25 13:37:00,84.7,31.9,29.91,WSW,245,4.0,14.0,15,0.00,,,0.00,654,WeatherCatV1.11B39,2013-10-25 20:37:00,
2013-10-25 13:42:00,83.7,31.1,29.91,West,265,4.0,7.0,15,0.00,,,0.00,647,WeatherCatV1.11B39,2013-10-25 20:42:00,
2013-10-25 13:47:00,83.5,31.0,29.91,NW,307,3.0,3.0,15,0.00,,,0.00,638,WeatherCatV1.11B39,2013-10-25 20:47:00,
2013-10-25 13:52:00,85.2,32.3,29.91,West,271,6.0,11.0,15,0.00,,,0.00,631,WeatherCatV1.11B39,2013-10-25 20:52:00,
2013-10-25 13:57:00,84.4,31.7,29.91,WSW,240,3.0,4.0,15,0.00,,,0.00,621,WeatherCatV1.11B39,2013-10-25 20:57:00,
2013-10-25 14:02:00,85.2,30.6,29.91,WSW,251,3.0,5.0,14,0.00,,,0.00,613,WeatherCatV1.11B39,2013-10-25 21:02:00,
2013-10-25 14:07:00,85.0,30.5,29.91,South,182,4.0,8.0,14,0.00,,,0.00,606,WeatherCatV1.11B39,2013-10-25 21:07:00,
2013-10-25 14:12:00,85.2,30.6,29.91,SW,232,4.0,6.0,14,0.00,,,0.00,594,WeatherCatV1.11B39,2013-10-25 21:12:00,
2013-10-25 14:17:00,85.2,30.6,29.90,WSW,243,8.0,10.0,14,0.00,,,0.00,584,WeatherCatV1.11B39,2013-10-25 21:17:00,
2013-10-25 14:22:00,85.5,30.8,29.90,NW,311,4.0,10.0,14,0.00,,,0.00,571,WeatherCatV1.11B39,2013-10-25 21:22:00,
2013-10-25 14:27:00,85.4,30.8,29.90,WSW,238,7.0,9.0,14,0.00,,,0.00,561,WeatherCatV1.11B39,2013-10-25 21:27:00,
2013-10-25 14:32:00,85.3,30.7,29.90,WSW,240,3.0,7.0,14,0.00,,,0.00,548,WeatherCatV1.11B39,2013-10-25 21:32:00,
2013-10-25 14:37:00,85.3,30.7,29.90,West,269,5.0,8.0,14,0.00,,,0.00,538,WeatherCatV1.11B39,2013-10-25 21:37:00,
2013-10-25 14:42:00,84.3,29.9,29.90,WSW,251,9.0,11.0,14,0.00,,,0.00,526,WeatherCatV1.11B39,2013-10-25 21:42:00,
2013-10-25 14:47:00,85.1,30.5,29.90,SW,233,3.0,8.0,14,0.00,,,0.00,513,WeatherCatV1.11B39,2013-10-25 21:47:00,
2013-10-25 14:52:00,85.6,30.9,29.90,SW,236,5.0,11.0,14,0.00,,,0.00,506,WeatherCatV1.11B39,2013-10-25 21:52:00,
2013-10-25 14:57:00,85.5,29.0,29.90,SW,224,4.0,9.0,13,0.00,,,0.00,489,WeatherCatV1.11B39,2013-10-25 21:57:00,
2013-10-25 15:02:00,85.0,28.6,29.90,WSW,241,3.0,11.0,13,0.00,,,0.00,480,WeatherCatV1.11B39,2013-10-25 22:02:00,
2013-10-25 15:07:00,84.9,26.6,29.90,WNW,286,4.0,8.0,12,0.00,,,0.00,468,WeatherCatV1.11B39,2013-10-25 22:07:00,
2013-10-25 15:12:00,84.5,28.2,29.90,West,264,5.0,8.0,13,0.00,,,0.00,450,WeatherCatV1.11B39,2013-10-25 22:12:00,
2013-10-25 15:17:00,85.0,30.5,29.90,SW,222,6.0,7.0,14,0.00,,,0.00,436,WeatherCatV1.11B39,2013-10-25 22:17:00,
2013-10-25 15:22:00,84.9,28.6,29.90,WNW,282,4.0,8.0,13,0.00,,,0.00,422,WeatherCatV1.11B39,2013-10-25 22:22:00,
2013-10-25 15:27:00,84.1,29.7,29.90,WSW,255,6.0,10.0,14,0.00,,,0.00,406,WeatherCatV1.11B39,2013-10-25 22:27:00,
2013-10-25 15:32:00,84.4,30.0,29.90,WSW,251,5.0,10.0,14,0.00,,,0.00,392,WeatherCatV1.11B39,2013-10-25 22:32:00,
2013-10-25 15:37:00,84.1,29.7,29.90,WSW,255,11.0,11.0,14,0.00,,,0.00,374,WeatherCatV1.11B39,2013-10-25 22:37:00,
2013-10-25 15:42:00,84.2,29.8,29.90,WSW,247,5.0,10.0,14,0.00,,,0.00,360,WeatherCatV1.11B39,2013-10-25 22:42:00,
2013-10-25 15:47:00,84.2,29.8,29.90,NW,313,3.0,11.0,14,0.00,,,0.00,345,WeatherCatV1.11B39,2013-10-25 22:47:00,
2013-10-25 15:52:00,84.0,29.7,29.90,West,272,6.0,6.0,14,0.00,,,0.00,329,WeatherCatV1.11B39,2013-10-25 22:52:00,
2013-10-25 15:57:00,84.0,29.7,29.90,SW,225,4.0,7.0,14,0.00,,,0.00,313,WeatherCatV1.11B39,2013-10-25 22:57:00,
2013-10-25 16:02:00,84.0,29.7,29.90,WSW,254,9.0,12.0,14,0.00,,,0.00,297,WeatherCatV1.11B39,2013-10-25 23:02:00,
2013-10-25 16:07:00,83.6,31.0,29.90,SW,234,5.0,6.0,15,0.00,,,0.00,279,WeatherCatV1.11B39,2013-10-25 23:07:00,
2013-10-25 16:12:00,83.5,29.3,29.90,WNW,296,9.0,12.0,14,0.00,,,0.00,264,WeatherCatV1.11B39,2013-10-25 23:12:00,
2013-10-25 16:17:00,83.2,30.7,29.90,WNW,288,12.0,12.0,15,0.00,,,0.00,246,WeatherCatV1.11B39,2013-10-25 23:17:00,
2013-10-25 16:22:00,82.7,31.9,29.90,WNW,297,4.0,10.0,16,0.00,,,0.00,216,WeatherCatV1.11B39,2013-10-25 23:22:00,
2013-10-25 16:27:00,82.9,30.5,29.90,West,261,6.0,10.0,15,0.00,,,0.00,174,WeatherCatV1.11B39,2013-10-25 23:27:00,
2013-10-25 16:32:00,82.8,32.0,29.90,WNW,282,3.0,9.0,16,0.00,,,0.00,185,WeatherCatV1.11B39,2013-10-25 23:32:00,
2013-10-25 16:37:00,82.6,31.8,29.90,West,272,6.0,9.0,16,0.00,,,0.00,160,WeatherCatV1.11B39,2013-10-25 23:37:00,
2013-10-25 16:42:00,82.3,30.0,29.90,WSW,257,8.0,10.0,15,0.00,,,0.00,141,WeatherCatV1.11B39,2013-10-25 23:42:00,
2013-10-25 16:47:00,82.0,31.4,29.90,West,268,6.0,9.0,16,0.00,,,0.00,123,WeatherCatV1.11B39,2013-10-25 23:47:00,
2013-10-25 16:52:00,81.7,31.1,29.90,West,276,5.0,9.0,16,0.00,,,0.00,97,WeatherCatV1.11B39,2013-10-25 23:52:00,
2013-10-25 16:57:00,81.4,30.9,29.90,West,273,9.0,10.0,16,0.00,,,0.00,70,WeatherCatV1.11B39,2013-10-25 23:57:00,
2013-10-25 17:02:00,81.2,30.7,29.90,WSW,238,4.0,7.0,16,0.00,,,0.00,62,WeatherCatV1.11B39,2013-10-26 00:02:00,
2013-10-25 17:07:00,80.9,30.5,29.91,West,279,5.0,12.0,16,0.00,,,0.00,33,WeatherCatV1.11B39,2013-10-26 00:07:00,
2013-10-25 17:12:00,80.6,30.2,29.91,West,267,9.0,11.0,16,0.00,,,0.00,21,WeatherCatV1.11B39,2013-10-26 00:12:00,
2013-10-25 17:17:00,80.2,31.4,29.91,WSW,254,4.0,7.0,17,0.00,,,0.00,19,WeatherCatV1.11B39,2013-10-26 00:17:00,
2013-10-25 17:22:00,79.7,31.0,29.91,WSW,251,5.0,8.0,17,0.00,,,0.00,16,WeatherCatV1.11B39,2013-10-26 00:22:00,
2013-10-25 17:27:00,79.3,30.7,29.91,WSW,257,9.0,10.0,17,0.00,,,0.00,12,WeatherCatV1.11B39,2013-10-26 00:27:00,
2013-10-25 17:32:00,79.0,30.5,29.91,West,265,6.0,7.0,17,0.00,,,0.00,11,WeatherCatV1.11B39,2013-10-26 00:32:00,
2013-10-25 17:37:00,78.4,31.4,29.92,West,266,4.0,12.0,18,0.00,,,0.00,7,WeatherCatV1.11B39,2013-10-26 00:37:00,
2013-10-25 17:42:00,78.1,31.1,29.92,West,265,7.0,9.0,18,0.00,,,0.00,0,WeatherCatV1.11B39,2013-10-26 00:42:00,
2013-10-25 17:47:00,77.7,30.8,29.92,WNW,284,4.0,11.0,18,0.00,,,0.00,0,WeatherCatV1.11B39,2013-10-26 00:47:00,
2013-10-25 17:52:00,77.4,30.6,29.92,West,267,9.0,9.0,18,0.00,,,0.00,0,WeatherCatV1.11B39,2013-10-26 00:52:00,
2013-10-25 17:57:00,77.1,31.7,29.92,West,272,5.0,7.0,19,0.00,,,0.00,0,WeatherCatV1.11B39,2013-10-26 00:57:00,
2013-10-25 18:02:00,76.7,31.3,29.92,West,267,4.0,5.0,19,0.00,,,0.00,0,WeatherCatV1.11B39,2013-10-26 01:02:00,
2013-10-25 18:07:00,76.4,31.1,29.93,WNW,290,1.0,7.0,19,0.00,,,0.00,0,WeatherCatV1.11B39,2013-10-26 01:07:00,
2013-10-25 18:12:00,76.0,32.0,29.93,West,267,3.0,7.0,20,0.00,,,0.00,0,WeatherCatV1.11B39,2013-10-26 01:12:00,
2013-10-25 18:17:00,75.7,31.8,29.93,West,269,2.0,6.0,20,0.00,,,0.00,0,WeatherCatV1.11B39,2013-10-26 01:17:00,
2013-10-25 18:22:00,75.1,32.5,29.93,WNW,286,1.0,3.0,21,0.00,,,0.00,0,WeatherCatV1.11B39,2013-10-26 01:22:00,
2013-10-25 18:27:00,73.8,31.4,29.93,WNW,286,1.0,3.0,21,0.00,,,0.00,0,WeatherCatV1.11B39,2013-10-26 01:27:00,
2013-10-25 18:32:00,73.1,32.0,29.93,WNW,287,1.0,4.0,22,0.00,,,0.00,0,WeatherCatV1.11B39,2013-10-26 01:32:00,
2013-10-25 18:37:00,72.6,31.6,29.93,WNW,287,0.0,1.0,22,0.00,,,0.00,0,WeatherCatV1.11B39,2013-10-26 01:37:00,
2013-10-25 18:42:00,71.7,31.9,29.94,WNW,287,0.0,0.0,23,0.00,,,0.00,0,WeatherCatV1.11B39,2013-10-26 01:42:00,
2013-10-25 18:47:00,71.0,32.4,29.94,WNW,287,0.0,1.0,24,0.00,,,0.00,0,WeatherCatV1.11B39,2013-10-26 01:47:00,
2013-10-25 18:52:00,70.4,32.9,29.94,WNW,287,0.0,0.0,25,0.00,,,0.00,0,WeatherCatV1.11B39,2013-10-26 01:52:00,
2013-10-25 18:57:00,69.3,32.0,29.94,WNW,287,0.0,0.0,25,0.00,,,0.00,0,WeatherCatV1.11B39,2013-10-26 01:57:00,
2013-10-25 19:02:00,68.5,32.3,29.94,WNW,287,0.0,0.0,26,0.00,,,0.00,0,WeatherCatV1.11B39,2013-10-26 02:02:00,
2013-10-25 19:07:00,68.2,32.0,29.94,WNW,287,0.0,2.0,26,0.00,,,0.00,0,WeatherCatV1.11B39,2013-10-26 02:07:00,
2013-10-25 19:12:00,68.1,31.9,29.95,South,176,3.0,5.0,26,0.00,,,0.00,0,WeatherCatV1.11B39,2013-10-26 02:12:00,
2013-10-25 19:17:00,68.2,32.0,29.95,South,175,0.0,1.0,26,0.00,,,0.00,0,WeatherCatV1.11B39,2013-10-26 02:17:00,
2013-10-25 19:22:00,68.0,31.8,29.95,South,175,0.0,1.0,26,0.00,,,0.00,0,WeatherCatV1.11B39,2013-10-26 02:22:00,
2013-10-25 19:27:00,67.0,31.9,29.96,SE,141,3.0,3.0,27,0.00,,,0.00,0,WeatherCatV1.11B39,2013-10-26 02:27:00,
2013-10-25 19:32:00,67.0,31.0,29.95,SE,140,1.0,3.0,26,0.00,,,0.00,0,WeatherCatV1.11B39,2013-10-26 02:32:00,
2013-10-25 19:37:00,67.0,31.0,29.96,SE,138,1.0,2.0,26,0.00,,,0.00,0,WeatherCatV1.11B39,2013-10-26 02:37:00,
2013-10-25 19:42:00,66.9,30.9,29.96,SE,138,0.0,2.0,26,0.00,,,0.00,0,WeatherCatV1.11B39,2013-10-26 02:42:00,
2013-10-25 19:47:00,66.9,30.9,29.96,SE,138,0.0,1.0,26,0.00,,,0.00,0,WeatherCatV1.11B39,2013-10-26 02:47:00,
2013-10-25 19:52:00,66.3,30.4,29.96,SE,138,2.0,2.0,26,0.00,,,0.00,0,WeatherCatV1.11B39,2013-10-26 02:52:00,
2013-10-25 19:57:00,65.3,31.4,29.97,SE,138,0.0,2.0,28,0.00,,,0.00,0,WeatherCatV1.11B39,2013-10-26 02:57:00,
2013-10-25 20:02:00,65.0,31.1,29.97,SE,138,1.0,2.0,28,0.00,,,0.00,0,WeatherCatV1.11B39,2013-10-26 03:02:00,
2013-10-25 20:07:00,65.2,31.3,29.97,SE,138,0.0,2.0,28,0.00,,,0.00,0,WeatherCatV1.11B39,2013-10-26 03:07:00,
2013-10-25 20:12:00,65.3,30.5,29.97,SE,135,1.0,4.0,27,0.00,,,0.00,0,WeatherCatV1.11B39,2013-10-26 03:12:00,
2013-10-25 20:17:00,66.3,30.4,29.97,SE,134,0.0,2.0,26,0.00,,,0.00,0,WeatherCatV1.11B39,2013-10-26 03:17:00,
2013-10-25 20:22:00,66.2,30.3,29.97,SE,134,0.0,2.0,26,0.00,,,0.00,0,WeatherCatV1.11B39,2013-10-26 03:22:00,
2013-10-25 20:27:00,65.6,30.7,29.97,SE,134,2.0,3.0,27,0.00,,,0.00,0,WeatherCatV1.11B39,2013-10-26 03:27:00,
2013-10-25 20:32:00,65.6,30.7,29.97,ESE,112,1.0,4.0,27,0.00,,,0.00,0,WeatherCatV1.11B39,2013-10-26 03:32:00,
2013-10-25 20:37:00,65.8,30.0,29.98,East,90,3.0,3.0,26,0.00,,,0.00,0,WeatherCatV1.11B39,2013-10-26 03:37:00,
2013-10-25 20:42:00,66.3,30.4,29.98,East,89,2.0,3.0,26,0.00,,,0.00,0,WeatherCatV1.11B39,2013-10-26 03:42:00,
2013-10-25 20:47:00,66.5,30.6,29.98,East,89,1.0,1.0,26,0.00,,,0.00,0,WeatherCatV1.11B39,2013-10-26 03:47:00,
2013-10-25 20:52:00,65.7,29.9,29.98,East,89,1.0,3.0,26,0.00,,,0.00,0,WeatherCatV1.11B39,2013-10-26 03:52:00,
2013-10-25 20:57:00,64.9,30.1,29.98,East,89,1.0,1.0,27,0.00,,,0.00,0,WeatherCatV1.11B39,2013-10-26 03:57:00,
2013-10-25 21:01:00,64.6,29.9,29.98,East,89,0.0,2.0,27,0.00,,,0.00,0,WeatherCatV1.11B39,2013-10-26 04:01:00,
2013-10-25 21:02:00,64.5,29.8,29.98,East,89,0.0,1.0,27,0.00,,,0.00,0,WeatherCatV1.11B39,2013-10-26 04:02:00,
2013-10-25 21:07:00,64.2,30.4,29.98,East,89,0.0,2.0,28,0.00,,,0.00,0,WeatherCatV1.11B39,2013-10-26 04:07:00,
2013-10-25 21:12:00,63.8,30.1,29.99,East,89,0.0,2.0,28,0.00,,,0.00,0,WeatherCatV1.11B39,2013-10-26 04:12:00,
2013-10-25 21:17:00,63.7,30.0,29.98,East,89,1.0,2.0,28,0.00,,,0.00,0,WeatherCatV1.11B39,2013-10-26 04:17:00,
2013-10-25 21:22:00,63.3,29.6,29.99,East,89,0.0,1.0,28,0.00,,,0.00,0,WeatherCatV1.11B39,2013-10-26 04:22:00,
2013-10-25 21:27:00,63.3,29.6,29.98,East,89,1.0,1.0,28,0.00,,,0.00,0,WeatherCatV1.11B39,2013-10-26 04:27:00,
2013-10-25 21:32:00,63.2,30.4,29.99,East,89,0.0,0.0,29,0.00,,,0.00,0,WeatherCatV1.11B39,2013-10-26 04:32:00,
2013-10-25 21:37:00,62.0,30.2,30.00,East,90,2.0,3.0,30,0.00,,,0.00,0,WeatherCatV1.11B39,2013-10-26 04:37:00,
2013-10-25 21:42:00,61.3,30.4,30.00,East,90,0.0,1.0,31,0.00,,,0.00,0,WeatherCatV1.11B39,2013-10-26 04:42:00,
2013-10-25 21:47:00,60.7,29.9,30.00,East,89,0.0,1.0,31,0.00,,,0.00,0,WeatherCatV1.11B39,2013-10-26 04:47:00,
2013-10-25 21:52:00,60.4,29.6,30.00,East,89,0.0,0.0,31,0.00,,,0.00,0,WeatherCatV1.11B39,2013-10-26 04:52:00,
2013-10-25 21:57:00,59.9,30.0,30.00,East,89,1.0,2.0,32,0.00,,,0.00,0,WeatherCatV1.11B39,2013-10-26 04:57:00,
2013-10-25 22:02:00,59.2,30.1,30.00,East,89,0.0,1.0,33,0.00,,,0.00,0,WeatherCatV1.11B39,2013-10-26 05:02:00,
2013-10-25 22:07:00,59.1,30.8,30.00,East,89,0.0,0.0,34,0.00,,,0.00,0,WeatherCatV1.11B39,2013-10-26 05:07:00,
2013-10-25 22:12:00,58.9,30.6,30.00,East,89,0.0,2.0,34,0.00,,,0.00,0,WeatherCatV1.11B39,2013-10-26 05:12:00,
2013-10-25 22:17:00,58.5,30.2,30.00,East,89,1.0,2.0,34,0.00,,,0.00,0,WeatherCatV1.11B39,2013-10-26 05:17:00,
2013-10-25 22:22:00,58.2,30.7,30.00,East,89,0.0,0.0,35,0.00,,,0.00,0,WeatherCatV1.11B39,2013-10-26 05:22:00,
2013-10-25 22:27:00,58.2,30.7,30.00,East,89,1.0,1.0,35,0.00,,,0.00,0,WeatherCatV1.11B39,2013-10-26 05:27:00,
2013-10-25 22:32:00,57.9,30.4,30.00,East,89,2.0,2.0,35,0.00,,,0.00,0,WeatherCatV1.11B39,2013-10-26 05:32:00,
2013-10-25 22:37:00,57.8,30.3,30.00,East,89,0.0,0.0,35,0.00,,,0.00,0,WeatherCatV1.11B39,2013-10-26 05:37:00,
2013-10-25 22:42:00,57.5,30.1,30.00,East,89,0.0,1.0,35,0.00,,,0.00,0,WeatherCatV1.11B39,2013-10-26 05:42:00,
2013-10-25 22:47:00,57.1,30.4,30.00,East,89,0.0,1.0,36,0.00,,,0.00,0,WeatherCatV1.11B39,2013-10-26 05:47:00,
2013-10-25 22:52:00,57.0,30.3,30.00,East,89,0.0,1.0,36,0.00,,,0.00,0,WeatherCatV1.11B39,2013-10-26 05:52:00,
2013-10-25 22:57:00,57.2,30.5,30.00,East,89,0.0,2.0,36,0.00,,,0.00,0,WeatherCatV1.11B39,2013-10-26 05:57:00,
2013-10-25 23:02:00,57.3,29.9,30.00,East,89,1.0,1.0,35,0.00,,,0.00,0,WeatherCatV1.11B39,2013-10-26 06:02:00,
2013-10-25 23:07:00,56.9,29.5,30.00,East,89,0.0,2.0,35,0.00,,,0.00,0,WeatherCatV1.11B39,2013-10-26 06:07:00,
2013-10-25 23:12:00,56.9,30.2,30.00,East,89,0.0,2.0,36,0.00,,,0.00,0,WeatherCatV1.11B39,2013-10-26 06:12:00,
2013-10-25 23:17:00,56.6,30.0,30.00,East,89,0.0,1.0,36,0.00,,,0.00,0,WeatherCatV1.11B39,2013-10-26 06:17:00,
2013-10-25 23:22:00,56.4,29.8,30.00,East,89,1.0,2.0,36,0.00,,,0.00,0,WeatherCatV1.11B39,2013-10-26 06:22:00,
2013-10-25 23:27:00,56.7,30.0,30.00,East,89,0.0,1.0,36,0.00,,,0.00,0,WeatherCatV1.11B39,2013-10-26 06:27:00,
2013-10-25 23:32:00,56.4,29.8,30.00,East,89,2.0,2.0,36,0.00,,,0.00,0,WeatherCatV1.11B39,2013-10-26 06:32:00,
2013-10-25 23:37:00,55.8,29.9,30.00,East,89,1.0,2.0,37,0.00,,,0.00,0,WeatherCatV1.11B39,2013-10-26 06:37:00,
2013-10-25 23:42:00,55.5,29.7,30.00,East,89,0.0,1.0,37,0.00,,,0.00,0,WeatherCatV1.11B39,2013-10-26 06:42:00,
2013-10-25 23:47:00,55.6,30.4,30.00,East,89,1.0,2.0,38,0.00,,,0.00,0,WeatherCatV1.11B39,2013-10-26 06:47:00,
2013-10-25 23:52:00,55.5,29.7,30.00,East,89,1.0,2.0,37,0.00,,,0.00,0,WeatherCatV1.11B39,2013-10-26 06:52:00,
2013-10-25 23:57:00,55.4,30.2,30.00,East,89,1.0,2.0,38,0.00,,,0.00,0,WeatherCatV1.11B39,2013-10-26 06:57:00,